createdAt,value
2019-05-26T00:03:44.254Z,93.70
2019-05-26T00:07:48.872Z,93.60
2019-05-26T00:11:53.577Z,93.60
2019-05-26T00:15:58.237Z,93.50
2019-05-26T00:20:04.341Z,93.40
2019-05-26T00:24:08.854Z,93.70
2019-05-26T00:28:13.590Z,93.80
2019-05-26T00:32:18.140Z,93.70
2019-05-26T00:36:22.758Z,93.90
2019-05-26T00:40:27.731Z,93.70
2019-05-26T00:44:32.329Z,93.90
2019-05-26T00:48:37.035Z,93.90
2019-05-26T00:52:41.711Z,94.40
2019-05-26T00:56:46.391Z,94.00
2019-05-26T01:00:51.054Z,93.80
2019-05-26T01:04:55.692Z,93.90
2019-05-26T01:09:00.314Z,94.10
2019-05-26T01:13:06.073Z,94.10
2019-05-26T01:17:10.606Z,94.20
2019-05-26T01:21:15.174Z,94.30
2019-05-26T01:25:19.849Z,94.40
2019-05-26T01:29:24.532Z,94.00
2019-05-26T01:33:29.309Z,94.10
2019-05-26T01:37:33.994Z,94.20
2019-05-26T01:41:38.514Z,94.00
2019-05-26T01:45:43.151Z,94.20
2019-05-26T01:49:47.677Z,94.20
2019-05-26T01:53:52.219Z,94.30
2019-05-26T01:57:56.761Z,94.20
2019-05-26T02:02:01.390Z,94.20
2019-05-26T02:06:06.003Z,94.40
2019-05-26T02:10:10.882Z,94.50
2019-05-26T02:14:15.553Z,94.60
2019-05-26T02:18:20.058Z,94.60
2019-05-26T02:22:24.575Z,94.70
2019-05-26T02:26:29.119Z,94.80
2019-05-26T02:30:33.729Z,94.30
2019-05-26T02:34:38.260Z,94.30
2019-05-26T02:39:00.245Z,94.50
2019-05-26T02:42:49.105Z,94.50
2019-05-26T02:46:53.707Z,94.40
2019-05-26T02:50:58.281Z,94.40
2019-05-26T02:55:03.746Z,94.50
2019-05-26T02:59:08.286Z,94.50
2019-05-26T03:03:14.544Z,94.40
2019-05-26T03:07:19.620Z,94.60
2019-05-26T03:11:25.591Z,94.50
2019-05-26T03:15:32.742Z,94.60
2019-05-26T03:19:39.367Z,94.40
2019-05-26T03:23:47.419Z,94.50
2019-05-26T03:27:51.736Z,94.40
2019-05-26T03:31:56.359Z,94.60
2019-05-26T03:36:01.149Z,94.40
2019-05-26T03:40:10.271Z,94.70
2019-05-26T03:44:14.815Z,94.90
2019-05-26T03:48:19.334Z,94.70
2019-05-26T03:52:24.076Z,94.60
2019-05-26T03:56:28.795Z,94.70
2019-05-26T04:00:33.393Z,94.90
2019-05-26T04:04:38.002Z,94.70
2019-05-26T04:08:42.564Z,94.70
2019-05-26T04:12:47.175Z,94.80
2019-05-26T04:16:51.991Z,94.70
2019-05-26T04:20:56.549Z,94.90
2019-05-26T04:25:01.141Z,94.90
2019-05-26T04:29:05.767Z,95.50
2019-05-26T04:33:10.412Z,95.60
2019-05-26T04:37:15.063Z,95.80
2019-05-26T04:41:19.650Z,96.20
2019-05-26T04:45:24.204Z,95.80
2019-05-26T04:49:28.828Z,95.50
2019-05-26T04:53:33.583Z,95.40
2019-05-26T04:57:41.341Z,95.00
2019-05-26T05:01:45.981Z,94.80
2019-05-26T05:05:50.616Z,94.50
2019-05-26T05:09:55.163Z,94.00
2019-05-26T05:13:59.826Z,93.40
2019-05-26T05:18:04.548Z,92.70
2019-05-26T05:22:09.271Z,91.60
2019-05-26T05:26:14.086Z,90.90
2019-05-26T05:30:20.622Z,90.60
2019-05-26T05:34:25.190Z,90.70
2019-05-26T05:38:29.798Z,91.10
2019-05-26T05:42:34.355Z,91.00
2019-05-26T05:46:39.096Z,91.20
2019-05-26T05:50:43.633Z,91.70
2019-05-26T05:54:48.172Z,91.60
2019-05-26T05:58:52.723Z,91.20
2019-05-26T06:02:57.292Z,91.00
2019-05-26T06:07:01.919Z,90.90
2019-05-26T06:11:15.906Z,88.90
2019-05-26T06:15:15.113Z,86.20
2019-05-26T06:19:19.821Z,85.10
2019-05-26T06:23:24.491Z,82.70
2019-05-26T06:27:29.352Z,81.50
2019-05-26T06:31:34.000Z,79.00
2019-05-26T06:35:38.624Z,77.40
2019-05-26T06:39:43.232Z,78.40
2019-05-26T06:43:47.924Z,76.30
2019-05-26T06:47:52.462Z,73.50
2019-05-26T06:51:57.015Z,73.40
2019-05-26T06:56:01.597Z,68.70
2019-05-26T07:00:07.277Z,67.20
2019-05-26T07:04:11.816Z,66.80
2019-05-26T07:08:16.382Z,65.20
2019-05-26T07:12:21.054Z,65.70
2019-05-26T07:16:37.693Z,68.10
2019-05-26T07:20:32.037Z,65.60
2019-05-26T07:24:36.572Z,65.40
2019-05-26T07:28:41.107Z,65.20
2019-05-26T07:32:45.791Z,64.00
2019-05-26T07:36:50.317Z,62.10
2019-05-26T07:40:54.883Z,62.40
2019-05-26T07:44:59.447Z,59.40
2019-05-26T07:49:04.085Z,59.80
2019-05-26T07:53:08.736Z,59.90
2019-05-26T07:57:13.310Z,62.40
2019-05-26T08:01:17.970Z,62.90
2019-05-26T08:05:22.715Z,65.60
2019-05-26T08:09:27.259Z,65.30
2019-05-26T08:13:31.913Z,65.10
2019-05-26T08:17:36.644Z,65.20
2019-05-26T08:21:41.197Z,66.00
2019-05-26T08:25:45.848Z,62.10
2019-05-26T08:29:50.496Z,65.80
2019-05-26T08:33:55.249Z,63.30
2019-05-26T08:37:59.808Z,62.20
2019-05-26T08:42:04.587Z,61.50
2019-05-26T08:46:09.333Z,62.00
2019-05-26T08:50:14.589Z,61.80
2019-05-26T08:54:19.263Z,63.90
2019-05-26T08:58:23.962Z,63.60
2019-05-26T09:02:28.495Z,62.70
2019-05-26T09:06:32.976Z,63.10
2019-05-26T09:10:37.674Z,62.80
2019-05-26T09:14:42.197Z,65.60
2019-05-26T09:18:46.909Z,64.50
2019-05-26T09:22:51.603Z,62.90
2019-05-26T09:26:56.151Z,63.50
2019-05-26T09:31:00.911Z,63.50
2019-05-26T09:35:08.730Z,64.60
2019-05-26T09:39:12.994Z,64.40
2019-05-26T09:43:17.563Z,63.90
2019-05-26T09:47:22.121Z,64.70
2019-05-26T09:51:26.759Z,63.60
2019-05-26T09:55:31.287Z,63.70
2019-05-26T09:59:35.927Z,65.10
2019-05-26T10:03:40.518Z,63.90
2019-05-26T10:07:45.067Z,64.30
2019-05-26T10:11:49.688Z,64.40
2019-05-26T10:15:54.191Z,66.20
2019-05-26T10:19:58.908Z,62.80
2019-05-26T10:24:03.511Z,62.20
2019-05-26T10:28:08.064Z,62.70
2019-05-26T10:32:12.600Z,61.80
2019-05-26T10:36:17.138Z,61.40
2019-05-26T10:40:21.821Z,62.20
2019-05-26T10:44:26.324Z,62.80
2019-05-26T10:48:30.954Z,60.60
2019-05-26T10:52:35.713Z,62.00
2019-05-26T10:56:40.337Z,60.00
2019-05-26T11:00:44.880Z,60.20
2019-05-26T11:04:49.608Z,58.80
2019-05-26T11:08:54.329Z,59.70
2019-05-26T11:12:58.847Z,59.70
2019-05-26T11:17:03.554Z,59.90
2019-05-26T11:21:08.221Z,58.90
2019-05-26T11:25:12.932Z,60.80
2019-05-26T11:29:17.508Z,61.00
2019-05-26T11:33:22.421Z,61.00
2019-05-26T11:37:27.057Z,61.70
2019-05-26T11:41:31.649Z,61.60
2019-05-26T11:45:36.325Z,61.40
2019-05-26T11:49:40.863Z,61.60
2019-05-26T11:53:45.417Z,65.30
2019-05-26T11:57:50.132Z,61.60
2019-05-26T12:01:55.009Z,63.20
2019-05-26T12:05:59.577Z,61.50
2019-05-26T12:10:07.241Z,60.10
2019-05-26T12:14:11.750Z,59.60
2019-05-26T12:18:16.298Z,61.60
2019-05-26T12:22:20.897Z,59.40
2019-05-26T12:26:25.605Z,60.40
2019-05-26T12:30:30.320Z,59.90
2019-05-26T12:34:35.142Z,61.10
2019-05-26T12:38:51.491Z,60.10
2019-05-26T12:42:56.145Z,59.60
2019-05-26T12:47:00.819Z,59.30
2019-05-26T12:51:05.396Z,60.30
2019-05-26T12:55:10.295Z,59.50
2019-05-26T12:59:14.958Z,61.30
2019-05-26T13:03:19.487Z,60.80
2019-05-26T13:07:24.037Z,60.80
2019-05-26T13:11:28.700Z,59.50
2019-05-26T13:15:33.441Z,59.40
2019-05-26T13:19:38.107Z,58.90
2019-05-26T13:23:42.741Z,60.10
2019-05-26T13:27:47.350Z,59.30
2019-05-26T13:31:52.004Z,59.80
2019-05-26T13:35:56.735Z,58.50
2019-05-26T13:40:01.375Z,57.70
2019-05-26T13:44:06.136Z,57.30
2019-05-26T13:48:10.689Z,58.70
2019-05-26T13:52:15.410Z,59.50
2019-05-26T13:56:19.979Z,59.20
2019-05-26T14:00:24.801Z,59.10
2019-05-26T14:04:29.459Z,58.50
2019-05-26T14:08:33.983Z,57.30
2019-05-26T14:12:38.754Z,57.70
2019-05-26T14:16:46.023Z,57.80
2019-05-26T14:20:50.695Z,56.80
2019-05-26T14:24:55.449Z,58.70
2019-05-26T14:29:00.071Z,58.00
2019-05-26T14:33:05.373Z,58.70
2019-05-26T14:37:09.886Z,58.40
2019-05-26T14:41:14.436Z,58.50
2019-05-26T14:45:19.880Z,59.10
2019-05-26T14:49:24.407Z,58.60
2019-05-26T14:53:29.119Z,60.10
2019-05-26T14:57:33.755Z,58.30
2019-05-26T15:01:38.421Z,59.60
2019-05-26T15:05:43.180Z,59.50
2019-05-26T15:09:47.795Z,59.10
2019-05-26T15:13:52.746Z,59.30
2019-05-26T15:17:57.332Z,60.90
2019-05-26T15:22:02.007Z,59.40
2019-05-26T15:26:06.888Z,59.20
2019-05-26T15:30:11.907Z,60.10
2019-05-26T15:34:16.460Z,58.20
2019-05-26T15:38:21.016Z,59.20
2019-05-26T15:42:25.655Z,59.00
2019-05-26T15:46:30.233Z,58.90
2019-05-26T15:50:34.736Z,59.80
2019-05-26T15:54:39.428Z,59.50
2019-05-26T15:58:45.704Z,61.40
2019-05-26T16:02:50.560Z,62.90
2019-05-26T16:06:55.132Z,63.50
2019-05-26T16:10:59.814Z,63.50
2019-05-26T16:15:06.867Z,63.30
2019-05-26T16:19:11.193Z,64.90
2019-05-26T16:23:15.838Z,64.30
2019-05-26T16:27:21.434Z,64.10
2019-05-26T16:31:26.093Z,64.60
2019-05-26T16:35:30.635Z,65.70
2019-05-26T16:39:37.227Z,65.30
2019-05-26T16:43:41.520Z,65.20
2019-05-26T16:47:47.406Z,65.60
2019-05-26T16:51:51.960Z,66.20
2019-05-26T16:55:56.595Z,66.60
2019-05-26T17:00:01.208Z,66.70
2019-05-26T17:04:05.877Z,66.80
2019-05-26T17:08:10.418Z,66.60
2019-05-26T17:12:15.035Z,67.30
2019-05-26T17:16:19.722Z,67.40
2019-05-26T17:20:24.367Z,67.50
2019-05-26T17:24:28.911Z,66.70
2019-05-26T17:28:33.640Z,67.60
2019-05-26T17:32:38.267Z,66.80
2019-05-26T17:36:43.048Z,67.00
2019-05-26T17:40:48.721Z,66.80
2019-05-26T17:44:58.932Z,66.30
2019-05-26T17:49:04.074Z,65.40
2019-05-26T17:53:08.959Z,65.40
2019-05-26T17:57:13.596Z,65.20
2019-05-26T18:01:18.167Z,64.30
2019-05-26T18:05:22.879Z,63.80
2019-05-26T18:09:41.355Z,63.50
2019-05-26T18:13:33.783Z,63.10
2019-05-26T18:17:47.102Z,61.90
2019-05-26T18:21:44.713Z,62.50
2019-05-26T18:25:49.531Z,64.00
2019-05-26T18:29:54.055Z,64.10
2019-05-26T18:33:58.739Z,64.00
2019-05-26T18:38:03.430Z,64.10
2019-05-26T18:42:08.018Z,65.00
2019-05-26T18:46:12.924Z,65.20
2019-05-26T18:50:17.720Z,66.20
2019-05-26T18:54:22.446Z,66.80
2019-05-26T18:58:27.086Z,66.90
2019-05-26T19:02:31.684Z,68.00
2019-05-26T19:06:36.260Z,68.40
2019-05-26T19:10:41.081Z,69.10
2019-05-26T19:14:45.714Z,68.70
2019-05-26T19:18:50.374Z,67.80
2019-05-26T19:22:55.211Z,65.70
2019-05-26T19:26:59.888Z,64.00
2019-05-26T19:31:04.563Z,65.10
2019-05-26T19:35:10.246Z,64.20
2019-05-26T19:39:14.802Z,62.50
2019-05-26T19:43:19.343Z,62.40
2019-05-26T19:47:23.952Z,63.00
2019-05-26T19:51:28.697Z,62.10
2019-05-26T19:55:33.237Z,62.70
2019-05-26T19:59:37.937Z,61.80
2019-05-26T20:03:42.648Z,62.90
2019-05-26T20:07:47.423Z,61.50
2019-05-26T20:11:52.549Z,61.10
2019-05-26T20:15:57.308Z,61.60
2019-05-26T20:20:01.970Z,61.60
2019-05-26T20:24:06.701Z,61.40
2019-05-26T20:28:11.559Z,61.80
2019-05-26T20:32:16.154Z,61.10
2019-05-26T20:36:20.981Z,61.30
2019-05-26T20:40:25.627Z,62.00
2019-05-26T20:44:30.271Z,63.00
2019-05-26T20:48:34.856Z,64.90
2019-05-26T20:52:39.527Z,66.70
2019-05-26T20:56:44.189Z,68.10
2019-05-26T21:00:49.058Z,68.70
2019-05-26T21:04:54.244Z,70.00
2019-05-26T21:08:58.830Z,70.70
2019-05-26T21:13:03.507Z,70.80
2019-05-26T21:17:08.249Z,71.50
2019-05-26T21:21:12.852Z,70.90
2019-05-26T21:25:17.540Z,71.40
2019-05-26T21:29:22.176Z,71.80
2019-05-26T21:33:26.922Z,72.50
2019-05-26T21:37:31.492Z,73.40
2019-05-26T21:41:36.337Z,73.40
2019-05-26T21:45:41.055Z,74.10
2019-05-26T21:49:45.584Z,74.50
2019-05-26T21:53:50.115Z,75.20
2019-05-26T21:57:54.707Z,75.60
2019-05-26T22:01:59.326Z,76.00
2019-05-26T22:06:04.073Z,76.30
2019-05-26T22:10:08.825Z,76.90
2019-05-26T22:14:13.333Z,77.60
2019-05-26T22:18:17.880Z,77.60
2019-05-26T22:22:22.499Z,77.80
2019-05-26T22:26:27.120Z,77.90
2019-05-26T22:30:31.668Z,77.80
2019-05-26T22:34:36.200Z,78.20
2019-05-26T22:38:40.735Z,78.40
2019-05-26T22:42:45.263Z,78.90
2019-05-26T22:46:49.805Z,79.60
2019-05-26T22:50:54.336Z,79.40
2019-05-26T22:54:58.948Z,79.80
2019-05-26T22:59:03.492Z,80.10
2019-05-26T23:03:08.117Z,80.30
2019-05-26T23:07:12.721Z,80.50
2019-05-26T23:11:17.353Z,80.90
2019-05-26T23:15:21.979Z,80.60
2019-05-26T23:19:26.515Z,80.80
2019-05-26T23:23:31.043Z,81.50
2019-05-26T23:27:35.650Z,81.10
2019-05-26T23:31:40.182Z,81.00
2019-05-26T23:35:44.788Z,80.90
2019-05-26T23:39:49.329Z,81.50
2019-05-26T23:43:53.840Z,81.20
2019-05-26T23:47:58.549Z,81.00
2019-05-26T23:52:03.285Z,81.80
2019-05-26T23:56:07.923Z,82.40
